Terminal Aerodrome Forecast
Issued by NWS

Home | Current Version | Previous Version | Text Only | Print | Product List | Glossary On
Versions: 1 2 3 4 5 6 7 8 9 10 11 12 13
000
FTUS43 KICT 020520
TAFHUT
TAF
KHUT 020520Z 0206/0306 36008KT P6SM BKN300
     FM021000 01006KT P6SM SCT020 BKN100
     FM021500 02014G20KT P6SM BKN120
     FM022100 VRB03KT P6SM BKN100=

USA.gov is the U.S. government's official web portal to all federal, state and local government web resources and services.